< Cyclone 202227 2022 Season
Cyclone 202228 (Charlotte)
General InformationDetailed Track InformationTrack Information on Google MapsList of All Images || ResourceGoogle EarthGE AnimationAtom FeedGeoJSON
Detalied Best Track Wind (Time Zone = UTC)
Year Month Day Hour Lat. Long. Wind (kt) Gust (kt) Direc. of Major Storm Axis Radius of Major Storm Axis (nm) Radius of Minor Storm Axis (nm) Direc. of Major Gale Axis Radius of Major Gale Axis (nm) Radius of Minor Gale Axis (nm) Image
2022 3 18 18 -11.0 118.9 20 45 symmetric - - symmetric - - Image
2022 3 19 00 -11.1 118.1 20 45 symmetric - - symmetric - - Image
2022 3 19 06 -11.1 117.5 25 45 symmetric - - symmetric - - Image
2022 3 19 12 -11.3 116.9 25 45 symmetric - - symmetric - - Image
2022 3 19 18 -11.4 116.0 30 45 symmetric - - symmetric - - Image
2022 3 20 00 -11.8 115.1 35 50 symmetric - - symmetric - - Image
2022 3 20 06 -12.4 114.5 35 50 symmetric - - symmetric - - Image
2022 3 20 12 -12.9 113.8 40 55 symmetric - - symmetric - - Image
2022 3 20 18 -13.9 113.4 45 65 symmetric - - symmetric - - Image
2022 3 21 00 -14.8 112.1 50 70 symmetric - - symmetric - - Image
2022 3 21 06 -15.2 111.1 50 70 symmetric - - symmetric - - Image
2022 3 21 12 -15.9 110.4 55 75 symmetric - - symmetric - - Image
2022 3 21 18 -16.3 110.0 65 90 symmetric - - symmetric - - Image
2022 3 21 21 -16.4 109.6 90 125 symmetric - - symmetric - - Image
2022 3 22 00 -16.5 109.3 90 125 symmetric - - symmetric - - Image
2022 3 22 06 -17.0 109.1 90 125 symmetric - - symmetric - - Image
2022 3 22 12 -17.5 109.0 90 125 symmetric - - symmetric - - Image
2022 3 22 18 -17.7 108.9 80 110 symmetric - - symmetric - - Image
2022 3 23 00 -18.4 108.8 70 100 symmetric - - symmetric - - Image
2022 3 23 06 -18.9 108.4 65 90 symmetric - - symmetric - - Image
2022 3 23 12 -19.1 108.1 55 75 symmetric - - symmetric - - Image
2022 3 23 18 -19.2 107.6 30 45 symmetric - - symmetric - - Image
2022 3 24 00 -19.7 107.3 30 45 symmetric - - symmetric - - Image
2022 3 24 06 -20.9 107.3 30 45 symmetric - - symmetric - - Image
2022 3 24 12 -21.9 107.0 30 45 symmetric - - symmetric - - Image
2022 3 24 18 -24.0 106.8 30 45 symmetric - - symmetric - - Image
2022 3 25 00 -24.9 107.0 30 45 symmetric - - symmetric - - Image
2022 3 25 06 -27.4 107.8 30 45 symmetric - - symmetric - - Image
< Cyclone 202227 2022 Season

Help